createdAt,value
2018-02-13T00:01:32.074Z,3.70
2018-02-13T00:04:06.300Z,3.40
2018-02-13T00:06:40.998Z,3.50
2018-02-13T00:09:15.252Z,3.90
2018-02-13T00:11:49.437Z,3.80
2018-02-13T00:14:23.152Z,4.20
2018-02-13T00:16:57.786Z,4.10
2018-02-13T00:19:32.112Z,4.20
2018-02-13T00:22:07.180Z,3.70
2018-02-13T00:24:42.160Z,3.90
2018-02-13T00:27:16.190Z,3.90
2018-02-13T00:29:49.892Z,4.10
2018-02-13T00:32:24.653Z,3.80
2018-02-13T00:34:59.177Z,3.80
2018-02-13T00:37:33.089Z,4.20
2018-02-13T00:40:07.206Z,4.30
2018-02-13T00:42:40.985Z,4.10
2018-02-13T00:45:14.876Z,4.30
2018-02-13T00:47:49.334Z,4.00
2018-02-13T00:50:23.161Z,3.90
2018-02-13T00:52:56.926Z,4.10
2018-02-13T00:55:30.700Z,3.80
2018-02-13T00:58:05.249Z,3.70
2018-02-13T01:00:39.293Z,3.70
2018-02-13T01:03:13.895Z,4.00
2018-02-13T01:05:48.065Z,4.00
2018-02-13T01:08:22.764Z,3.90
2018-02-13T01:10:56.370Z,3.70
2018-02-13T01:13:30.540Z,4.00
2018-02-13T01:16:05.271Z,3.60
2018-02-13T01:18:39.714Z,3.90
2018-02-13T01:21:14.621Z,4.10
2018-02-13T01:23:48.849Z,4.10
2018-02-13T01:26:22.743Z,3.90
2018-02-13T01:28:57.442Z,4.10
2018-02-13T01:31:32.061Z,3.80
2018-02-13T01:34:06.928Z,3.60
2018-02-13T01:36:41.616Z,2.70
2018-02-13T01:39:15.565Z,2.30
2018-02-13T01:41:49.486Z,2.40
2018-02-13T01:44:23.869Z,2.90
2018-02-13T01:46:58.992Z,3.50
2018-02-13T01:49:33.205Z,3.50
2018-02-13T01:52:07.014Z,3.40
2018-02-13T01:54:41.882Z,3.20
2018-02-13T01:57:16.517Z,3.30
2018-02-13T01:59:50.399Z,3.00
2018-02-13T02:02:24.240Z,2.60
2018-02-13T02:04:58.941Z,2.70
2018-02-13T02:07:33.079Z,2.70
2018-02-13T02:10:08.704Z,2.90
2018-02-13T02:12:42.403Z,2.90
2018-02-13T02:15:16.730Z,3.20
2018-02-13T02:17:51.388Z,3.10
2018-02-13T02:20:25.501Z,2.70
2018-02-13T02:23:00.050Z,2.50
2018-02-13T02:25:34.386Z,2.50
2018-02-13T02:28:08.391Z,2.40
2018-02-13T02:30:42.511Z,2.50
2018-02-13T02:33:17.235Z,2.80
2018-02-13T02:35:51.477Z,2.80
2018-02-13T02:38:25.273Z,2.60
2018-02-13T02:41:00.023Z,2.50
2018-02-13T02:43:34.923Z,3.00
2018-02-13T02:46:09.126Z,3.00
2018-02-13T02:48:44.062Z,3.10
2018-02-13T02:51:18.158Z,3.10
2018-02-13T02:53:52.617Z,3.40
2018-02-13T02:56:27.873Z,2.80
2018-02-13T02:59:01.889Z,2.80
2018-02-13T03:01:36.604Z,2.40
2018-02-13T03:04:10.731Z,2.40
2018-02-13T03:06:45.336Z,2.60
2018-02-13T03:09:19.961Z,2.60
2018-02-13T03:11:54.633Z,3.20
2018-02-13T03:14:29.224Z,3.40
2018-02-13T03:17:03.522Z,3.40
2018-02-13T03:19:38.713Z,3.10
2018-02-13T03:22:13.389Z,3.00
2018-02-13T03:24:47.809Z,3.00
2018-02-13T03:27:22.572Z,3.20
2018-02-13T03:29:56.581Z,3.20
2018-02-13T03:32:31.146Z,3.40
2018-02-13T03:35:05.748Z,3.30
2018-02-13T03:37:39.624Z,3.30
2018-02-13T03:40:14.625Z,3.10
2018-02-13T03:42:48.476Z,3.10
2018-02-13T03:45:23.017Z,3.20
2018-02-13T03:47:57.544Z,3.20
2018-02-13T03:50:32.205Z,3.40
2018-02-13T03:53:06.888Z,3.60
2018-02-13T03:55:40.947Z,3.80
2018-02-13T03:58:15.036Z,3.80
2018-02-13T04:00:49.864Z,3.60
2018-02-13T04:03:24.653Z,3.60
2018-02-13T04:05:59.038Z,3.80
2018-02-13T04:08:33.877Z,3.60
2018-02-13T04:11:08.066Z,3.60
2018-02-13T04:13:42.410Z,3.80
2018-02-13T04:16:16.963Z,3.80
2018-02-13T04:18:51.559Z,3.50
2018-02-13T04:21:25.858Z,3.50
2018-02-13T04:24:00.588Z,3.20
2018-02-13T04:26:34.613Z,3.20
2018-02-13T04:29:08.544Z,3.30
2018-02-13T04:31:43.030Z,3.00
2018-02-13T04:34:17.103Z,2.50
2018-02-13T04:36:50.789Z,2.40
2018-02-13T04:39:24.798Z,2.70
2018-02-13T04:41:59.545Z,2.80
2018-02-13T04:44:33.469Z,2.80
2018-02-13T04:47:08.081Z,3.20
2018-02-13T04:49:42.112Z,3.20
2018-02-13T04:52:16.240Z,3.30
2018-02-13T04:54:50.373Z,2.80
2018-02-13T04:57:24.198Z,3.20
2018-02-13T04:59:58.148Z,3.40
2018-02-13T05:02:32.201Z,3.10
2018-02-13T05:05:06.066Z,3.40
2018-02-13T05:07:40.592Z,3.50
2018-02-13T05:10:14.913Z,3.30
2018-02-13T05:12:48.650Z,3.40
2018-02-13T05:15:23.456Z,3.80
2018-02-13T05:17:57.465Z,3.80
2018-02-13T05:20:31.833Z,3.60
2018-02-13T05:23:06.230Z,3.50
2018-02-13T05:25:41.141Z,3.50
2018-02-13T05:28:15.622Z,3.40
2018-02-13T05:30:49.533Z,3.40
2018-02-13T05:33:24.504Z,3.40
2018-02-13T05:35:59.058Z,3.40
2018-02-13T05:38:34.009Z,3.90
2018-02-13T05:41:09.907Z,3.90
2018-02-13T05:43:43.680Z,3.90
2018-02-13T05:46:17.792Z,4.00
2018-02-13T05:48:51.697Z,4.00
2018-02-13T05:51:26.552Z,3.60
2018-02-13T05:54:01.177Z,3.60
2018-02-13T05:56:35.066Z,3.90
2018-02-13T05:59:09.682Z,3.60
2018-02-13T06:01:43.838Z,3.60
2018-02-13T06:04:17.817Z,3.20
2018-02-13T06:06:51.850Z,3.20
2018-02-13T06:09:26.300Z,3.30
2018-02-13T06:12:00.833Z,3.40
2018-02-13T06:14:34.932Z,3.70
2018-02-13T06:17:09.013Z,3.50
2018-02-13T06:19:42.815Z,3.80
2018-02-13T06:22:18.510Z,3.20
2018-02-13T06:24:53.382Z,3.40
2018-02-13T06:27:27.556Z,3.50
2018-02-13T06:30:01.835Z,3.70
2018-02-13T06:32:35.986Z,3.30
2018-02-13T06:35:10.428Z,3.70
2018-02-13T06:37:44.661Z,3.70
2018-02-13T06:40:19.381Z,3.10
2018-02-13T06:42:53.933Z,3.10
2018-02-13T06:45:29.145Z,3.60
2018-02-13T06:48:03.086Z,3.60
2018-02-13T06:50:37.233Z,3.10
2018-02-13T06:53:12.670Z,3.40
2018-02-13T06:55:47.267Z,3.40
2018-02-13T06:58:22.590Z,2.90
2018-02-13T07:00:57.800Z,2.90
2018-02-13T07:03:31.803Z,2.80
2018-02-13T07:06:06.441Z,3.90
2018-02-13T07:08:40.424Z,3.80
2018-02-13T07:11:14.971Z,3.40
2018-02-13T07:13:49.173Z,3.40
2018-02-13T07:16:23.242Z,3.30
2018-02-13T07:18:58.067Z,3.30
2018-02-13T07:21:32.245Z,3.30
2018-02-13T07:24:06.341Z,3.30
2018-02-13T07:26:41.795Z,3.60
2018-02-13T07:29:15.909Z,3.60
2018-02-13T07:31:50.670Z,3.40
2018-02-13T07:34:24.951Z,3.40
2018-02-13T07:36:58.997Z,3.50
2018-02-13T07:39:33.621Z,3.60
2018-02-13T07:42:08.746Z,3.60
2018-02-13T07:44:43.909Z,3.30
2018-02-13T07:47:18.236Z,3.30
2018-02-13T07:49:52.737Z,3.70
2018-02-13T07:52:26.645Z,3.70
2018-02-13T07:55:00.652Z,3.40
2018-02-13T07:57:34.449Z,3.50
2018-02-13T08:00:08.726Z,3.50
2018-02-13T08:02:42.418Z,3.50
2018-02-13T08:05:16.198Z,3.60
2018-02-13T08:07:49.843Z,3.70
2018-02-13T08:10:24.821Z,3.30
2018-02-13T08:12:59.425Z,3.00
2018-02-13T08:15:33.753Z,3.00
2018-02-13T08:18:08.397Z,3.80
2018-02-13T08:20:42.740Z,3.80
2018-02-13T08:23:17.063Z,4.10
2018-02-13T08:25:52.320Z,4.00
2018-02-13T08:28:26.792Z,4.00
2018-02-13T08:31:01.616Z,3.70
2018-02-13T08:33:35.737Z,3.70
2018-02-13T08:36:09.596Z,4.40
2018-02-13T08:38:44.225Z,4.60
2018-02-13T08:41:18.154Z,4.60
2018-02-13T08:43:52.757Z,4.00
2018-02-13T08:46:26.796Z,4.00
2018-02-13T08:49:01.454Z,4.60
2018-02-13T08:51:35.364Z,4.50
2018-02-13T08:54:09.738Z,4.40
2018-02-13T08:56:44.688Z,4.80
2018-02-13T08:59:18.713Z,4.80
2018-02-13T09:01:53.317Z,4.90
2018-02-13T09:04:27.025Z,4.90
2018-02-13T09:07:00.973Z,5.10
2018-02-13T09:09:35.750Z,5.30
2018-02-13T09:12:09.672Z,5.30
2018-02-13T09:14:43.471Z,5.30
2018-02-13T09:17:17.797Z,5.20
2018-02-13T09:19:51.488Z,5.60
2018-02-13T09:22:25.584Z,5.80
2018-02-13T09:24:59.509Z,5.80
2018-02-13T09:27:34.282Z,5.20
2018-02-13T09:30:09.890Z,5.60
2018-02-13T09:32:44.720Z,5.80
2018-02-13T09:35:18.365Z,5.80
2018-02-13T09:37:52.863Z,6.10
2018-02-13T09:40:26.613Z,5.50
2018-02-13T09:43:00.347Z,5.70
2018-02-13T09:45:35.245Z,5.60
2018-02-13T09:48:09.627Z,5.60
2018-02-13T09:50:44.106Z,5.60
2018-02-13T09:53:18.605Z,5.60
2018-02-13T09:55:52.254Z,5.10
2018-02-13T09:58:26.318Z,5.60
2018-02-13T10:01:00.914Z,5.80
2018-02-13T10:03:35.177Z,5.80
2018-02-13T10:06:09.320Z,5.60
2018-02-13T10:08:43.589Z,5.00
2018-02-13T10:11:18.117Z,6.10
2018-02-13T10:13:52.136Z,6.10
2018-02-13T10:16:26.149Z,6.00
2018-02-13T10:19:01.309Z,6.50
2018-02-13T10:21:36.773Z,7.80
2018-02-13T10:24:11.420Z,7.80
2018-02-13T10:26:45.367Z,5.80
2018-02-13T10:29:19.976Z,6.10
2018-02-13T10:31:54.109Z,6.00
2018-02-13T10:34:29.057Z,6.10
2018-02-13T10:37:03.376Z,6.10
2018-02-13T10:39:37.532Z,6.20
2018-02-13T10:42:11.444Z,6.20
2018-02-13T10:44:45.350Z,5.90
2018-02-13T10:47:20.608Z,7.00
2018-02-13T10:49:56.073Z,5.60
2018-02-13T10:52:30.961Z,5.70
2018-02-13T10:55:04.822Z,5.70
2018-02-13T10:57:40.131Z,6.40
2018-02-13T11:00:14.577Z,6.40
2018-02-13T11:02:48.301Z,6.70
2018-02-13T11:05:22.904Z,7.20
2018-02-13T11:07:57.493Z,7.10
2018-02-13T11:10:31.998Z,6.60
2018-02-13T11:13:06.326Z,6.70
2018-02-13T11:15:40.741Z,7.10
2018-02-13T11:18:15.388Z,7.30
2018-02-13T11:20:49.570Z,7.20
2018-02-13T11:23:24.576Z,7.50
2018-02-13T11:25:59.735Z,7.90
2018-02-13T11:28:34.493Z,7.80
2018-02-13T11:31:09.065Z,7.70
2018-02-13T11:33:43.076Z,7.30
2018-02-13T11:36:18.259Z,7.10
2018-02-13T11:38:52.630Z,7.20
2018-02-13T11:41:27.475Z,6.50
2018-02-13T11:44:02.466Z,7.10
2018-02-13T11:46:36.675Z,7.00
2018-02-13T11:49:11.536Z,7.40
2018-02-13T11:51:46.593Z,7.00
2018-02-13T11:54:20.747Z,7.00
2018-02-13T11:56:54.643Z,6.70
2018-02-13T11:59:28.351Z,6.50
2018-02-13T12:02:03.860Z,7.30
2018-02-13T12:04:41.126Z,7.30
2018-02-13T12:07:15.739Z,7.40
2018-02-13T12:09:49.771Z,7.40
2018-02-13T12:12:23.556Z,7.30
2018-02-13T12:14:58.470Z,7.50
2018-02-13T12:17:33.794Z,7.10
2018-02-13T12:20:08.014Z,7.10
2018-02-13T12:22:42.634Z,6.90
2018-02-13T12:25:28.561Z,7.00
2018-02-13T12:28:02.923Z,7.10
2018-02-13T12:30:36.664Z,7.30
2018-02-13T12:33:11.426Z,7.40
2018-02-13T12:35:45.474Z,7.40
2018-02-13T12:38:20.268Z,7.20
2018-02-13T12:40:55.688Z,7.50
2018-02-13T12:43:29.913Z,7.40
2018-02-13T12:46:04.961Z,7.40
2018-02-13T12:48:39.570Z,7.30
2018-02-13T12:51:14.163Z,7.30
2018-02-13T12:53:48.272Z,7.20
2018-02-13T12:56:23.470Z,7.10
2018-02-13T12:58:58.054Z,7.40
2018-02-13T13:01:32.445Z,7.40
2018-02-13T13:04:08.561Z,7.30
2018-02-13T13:06:43.018Z,7.10
2018-02-13T13:09:17.331Z,7.20
2018-02-13T13:11:52.703Z,6.60
2018-02-13T13:14:28.074Z,7.00
2018-02-13T13:17:03.084Z,7.10
2018-02-13T13:19:37.329Z,7.10
2018-02-13T13:22:11.904Z,6.90
2018-02-13T13:24:46.090Z,6.90
2018-02-13T13:27:20.639Z,7.20
2018-02-13T13:29:55.774Z,7.20
2018-02-13T13:32:29.915Z,7.20
2018-02-13T13:35:04.562Z,7.10
2018-02-13T13:37:38.874Z,7.10
2018-02-13T13:40:13.697Z,7.00
2018-02-13T13:42:48.028Z,7.10
2018-02-13T13:45:22.745Z,7.20
2018-02-13T13:47:56.967Z,7.20
2018-02-13T13:50:31.419Z,7.20
2018-02-13T13:53:06.130Z,7.10
2018-02-13T13:55:40.423Z,7.00
2018-02-13T13:58:15.026Z,7.20
2018-02-13T14:00:49.497Z,7.10
2018-02-13T14:03:23.986Z,7.20
2018-02-13T14:05:59.245Z,7.40
2018-02-13T14:08:33.878Z,7.30
2018-02-13T14:11:07.906Z,7.30
2018-02-13T14:13:42.081Z,7.50
2018-02-13T14:16:16.434Z,7.40
2018-02-13T14:18:50.417Z,7.40
2018-02-13T14:21:25.232Z,7.50
2018-02-13T14:23:59.246Z,7.40
2018-02-13T14:26:33.244Z,7.60
2018-02-13T14:29:08.042Z,7.70
2018-02-13T14:31:42.431Z,7.70
2018-02-13T14:34:16.317Z,7.60
2018-02-13T14:36:50.559Z,7.80
2018-02-13T14:39:24.591Z,7.80
2018-02-13T14:41:58.985Z,7.70
2018-02-13T14:44:33.514Z,7.70
2018-02-13T14:47:08.200Z,8.10
2018-02-13T14:49:43.325Z,8.10
2018-02-13T14:52:18.209Z,8.20
2018-02-13T14:54:52.164Z,8.20
2018-02-13T14:57:26.033Z,8.40
2018-02-13T15:00:00.778Z,8.40
2018-02-13T15:02:35.438Z,8.40
2018-02-13T15:05:10.067Z,7.90
2018-02-13T15:07:44.605Z,8.20
2018-02-13T15:10:19.291Z,8.30
2018-02-13T15:12:54.058Z,8.30
2018-02-13T15:15:30.022Z,8.60
2018-02-13T15:18:06.312Z,8.20
2018-02-13T15:20:40.383Z,8.30
2018-02-13T15:23:16.540Z,8.60
2018-02-13T15:25:50.935Z,8.50
2018-02-13T15:28:24.648Z,8.50
2018-02-13T15:30:58.495Z,8.50
2018-02-13T15:33:33.050Z,8.10
2018-02-13T15:36:07.158Z,8.00
2018-02-13T15:38:41.693Z,8.00
2018-02-13T15:41:15.935Z,8.10
2018-02-13T15:43:50.377Z,8.10
2018-02-13T15:46:24.980Z,7.70
2018-02-13T15:48:59.744Z,7.60
2018-02-13T15:51:33.869Z,7.50
2018-02-13T15:54:07.662Z,7.70
2018-02-13T15:56:41.609Z,7.70
2018-02-13T15:59:15.962Z,7.50
2018-02-13T16:01:50.320Z,7.60
2018-02-13T16:04:24.807Z,7.70
2018-02-13T16:06:58.723Z,7.60
2018-02-13T16:09:33.747Z,7.50
2018-02-13T16:12:08.748Z,7.30
2018-02-13T16:14:43.426Z,7.30
2018-02-13T16:17:17.573Z,7.30
2018-02-13T16:19:52.913Z,7.40
2018-02-13T16:22:28.104Z,7.50
2018-02-13T16:25:02.111Z,7.50
2018-02-13T16:27:35.898Z,7.50
2018-02-13T16:30:10.413Z,7.50
2018-02-13T16:32:45.518Z,7.30
2018-02-13T16:35:19.781Z,7.20
2018-02-13T16:37:54.699Z,7.30
2018-02-13T16:40:29.145Z,7.30
2018-02-13T16:43:03.189Z,7.30
2018-02-13T16:45:37.609Z,7.20
2018-02-13T16:48:11.342Z,7.30
2018-02-13T16:50:45.991Z,7.20
2018-02-13T16:53:20.842Z,7.00
2018-02-13T16:55:56.175Z,6.90
2018-02-13T16:58:31.682Z,7.10
2018-02-13T17:01:05.814Z,7.10
2018-02-13T17:03:40.413Z,6.90
2018-02-13T17:06:14.100Z,6.90
2018-02-13T17:08:48.363Z,6.90
2018-02-13T17:11:23.249Z,6.80
2018-02-13T17:13:57.039Z,6.80
2018-02-13T17:16:31.800Z,6.60
2018-02-13T17:19:05.742Z,6.60
2018-02-13T17:21:40.469Z,6.70
2018-02-13T17:24:14.207Z,6.70
2018-02-13T17:26:48.760Z,6.80
2018-02-13T17:29:22.837Z,6.70
2018-02-13T17:31:57.290Z,6.70
2018-02-13T17:34:32.669Z,6.80
2018-02-13T17:37:07.129Z,6.70
2018-02-13T17:39:41.610Z,6.50
2018-02-13T17:42:15.587Z,6.50
2018-02-13T17:44:50.105Z,6.90
2018-02-13T17:47:24.288Z,6.50
2018-02-13T17:49:58.449Z,6.60
2018-02-13T17:52:32.523Z,6.60
2018-02-13T17:55:07.291Z,6.60
2018-02-13T17:57:41.651Z,6.60
2018-02-13T18:00:15.609Z,6.30
2018-02-13T18:02:50.334Z,6.30
2018-02-13T18:05:24.031Z,6.40
2018-02-13T18:07:58.702Z,6.40
2018-02-13T18:10:32.717Z,6.40
2018-02-13T18:13:06.455Z,6.40
2018-02-13T18:15:40.959Z,6.50
2018-02-13T18:18:15.554Z,6.60
2018-02-13T18:20:50.263Z,6.60
2018-02-13T18:23:24.642Z,6.60
2018-02-13T18:25:59.826Z,6.70
2018-02-13T18:28:34.128Z,6.70
2018-02-13T18:31:09.694Z,6.50
2018-02-13T18:33:44.089Z,6.50
2018-02-13T18:36:18.632Z,6.40
2018-02-13T18:38:53.694Z,6.30
2018-02-13T18:41:29.094Z,6.20
2018-02-13T18:44:04.333Z,6.10
2018-02-13T18:46:38.250Z,6.10
2018-02-13T18:49:13.119Z,6.00
2018-02-13T18:51:47.023Z,6.00
2018-02-13T18:54:21.050Z,6.10
2018-02-13T18:56:55.555Z,6.20
2018-02-13T18:59:30.494Z,6.10
2018-02-13T19:02:05.043Z,6.10
2018-02-13T19:04:39.299Z,6.10
2018-02-13T19:07:13.261Z,6.30
2018-02-13T19:09:47.402Z,6.10
2018-02-13T19:12:21.267Z,6.00
2018-02-13T19:14:56.749Z,5.90
2018-02-13T19:17:30.804Z,5.90
2018-02-13T19:20:05.307Z,5.80
2018-02-13T19:22:39.906Z,5.80
2018-02-13T19:25:14.556Z,5.80
2018-02-13T19:27:52.429Z,5.80
2018-02-13T19:30:26.351Z,5.80
2018-02-13T19:33:00.665Z,5.80
2018-02-13T19:35:34.459Z,5.80
2018-02-13T19:38:08.498Z,5.90
2018-02-13T19:40:42.403Z,5.80
2018-02-13T19:43:17.299Z,5.70
2018-02-13T19:45:51.180Z,5.70
2018-02-13T19:48:24.982Z,5.80
2018-02-13T19:50:59.026Z,5.90
2018-02-13T19:53:33.975Z,5.70
2018-02-13T19:56:08.494Z,5.70
2018-02-13T19:58:43.232Z,5.50
2018-02-13T20:01:18.011Z,5.60
2018-02-13T20:03:52.591Z,5.60
2018-02-13T20:06:26.289Z,5.80
2018-02-13T20:09:00.153Z,5.80
2018-02-13T20:11:34.058Z,5.90
2018-02-13T20:14:08.019Z,5.60
2018-02-13T20:16:42.688Z,5.60
2018-02-13T20:19:17.000Z,5.60
2018-02-13T20:21:51.079Z,5.70
2018-02-13T20:24:24.988Z,5.50
2018-02-13T20:26:59.708Z,5.70
2018-02-13T20:29:33.625Z,5.70
2018-02-13T20:32:07.603Z,5.30
2018-02-13T20:34:41.433Z,5.50
2018-02-13T20:37:16.437Z,5.60
2018-02-13T20:39:51.300Z,5.80
2018-02-13T20:42:25.380Z,5.80
2018-02-13T20:44:59.102Z,5.80
2018-02-13T20:47:32.967Z,5.70
2018-02-13T20:50:07.236Z,5.40
2018-02-13T20:52:41.919Z,5.10
2018-02-13T20:55:16.216Z,5.10
2018-02-13T20:57:50.157Z,5.00
2018-02-13T21:00:24.094Z,4.80
2018-02-13T21:02:58.950Z,4.70
2018-02-13T21:05:33.056Z,4.80
2018-02-13T21:08:07.784Z,5.30
2018-02-13T21:10:42.443Z,5.30
2018-02-13T21:13:16.951Z,5.50
2018-02-13T21:15:51.127Z,5.50
2018-02-13T21:18:25.695Z,5.30
2018-02-13T21:20:59.448Z,5.30
2018-02-13T21:23:34.598Z,5.30
2018-02-13T21:26:08.904Z,5.30
2018-02-13T21:28:43.205Z,5.30
2018-02-13T21:31:17.027Z,5.30
2018-02-13T21:33:51.578Z,5.40
2018-02-13T21:36:25.536Z,5.40
2018-02-13T21:39:00.008Z,5.40
2018-02-13T21:41:34.039Z,5.40
2018-02-13T21:44:08.919Z,5.40
2018-02-13T21:46:43.956Z,5.50
2018-02-13T21:49:18.039Z,5.50
2018-02-13T21:51:51.730Z,5.30
2018-02-13T21:54:25.603Z,5.00
2018-02-13T21:57:00.250Z,5.40
2018-02-13T21:59:34.087Z,5.40
2018-02-13T22:02:07.755Z,5.50
2018-02-13T22:04:41.927Z,5.10
2018-02-13T22:07:16.636Z,4.50
2018-02-13T22:09:51.119Z,4.50
2018-02-13T22:12:25.022Z,5.00
2018-02-13T22:14:59.504Z,4.60
2018-02-13T22:17:34.231Z,4.70
2018-02-13T22:20:09.266Z,4.70
2018-02-13T22:22:44.001Z,4.90
2018-02-13T22:25:18.571Z,5.10
2018-02-13T22:27:52.207Z,5.10
2018-02-13T22:30:26.089Z,5.20
2018-02-13T22:33:00.471Z,5.30
2018-02-13T22:35:34.351Z,5.40
2018-02-13T22:38:08.123Z,5.30
2018-02-13T22:40:42.086Z,5.10
2018-02-13T22:43:16.465Z,5.10
2018-02-13T22:45:51.021Z,5.20
2018-02-13T22:48:25.547Z,5.10
2018-02-13T22:51:00.471Z,5.10
2018-02-13T22:53:34.736Z,5.10
2018-02-13T22:56:09.434Z,4.90
2018-02-13T22:58:43.551Z,4.90
2018-02-13T23:01:18.042Z,4.90
2018-02-13T23:03:53.083Z,4.80
2018-02-13T23:06:27.081Z,4.80
2018-02-13T23:09:01.711Z,4.60
2018-02-13T23:11:35.634Z,4.60
2018-02-13T23:14:10.138Z,4.80
2018-02-13T23:16:44.372Z,4.80
2018-02-13T23:19:18.454Z,4.60
2018-02-13T23:21:52.435Z,4.60
2018-02-13T23:24:26.239Z,4.60
2018-02-13T23:27:00.857Z,4.70
2018-02-13T23:29:35.514Z,4.60
2018-02-13T23:32:09.696Z,4.60
2018-02-13T23:34:43.450Z,4.60
2018-02-13T23:37:18.289Z,4.70
2018-02-13T23:39:52.406Z,4.70
2018-02-13T23:42:26.452Z,4.80
2018-02-13T23:45:00.392Z,4.70
2018-02-13T23:47:34.284Z,4.70
2018-02-13T23:50:09.046Z,4.70
2018-02-13T23:52:43.657Z,4.80
2018-02-13T23:55:17.412Z,4.80
2018-02-13T23:57:51.347Z,4.90
